sensor_id;sensor_type;location;lat;lon;timestamp;pressure;altitude;pressure_sealevel;temperature;humidity
26719;BME280;14326;50.794;6.060;2023-03-18T00:01:38;98898.44;;;12.53;80.69
26719;BME280;14326;50.794;6.060;2023-03-18T00:04:08;98899.31;;;12.53;80.72
26719;BME280;14326;50.794;6.060;2023-03-18T00:06:38;98893.09;;;12.53;81.02
26719;BME280;14326;50.794;6.060;2023-03-18T00:09:06;98886.00;;;12.52;80.92
26719;BME280;14326;50.794;6.060;2023-03-18T00:11:33;98893.09;;;12.53;81.54
26719;BME280;14326;50.794;6.060;2023-03-18T00:14:00;98894.84;;;12.55;81.21
26719;BME280;14326;50.794;6.060;2023-03-18T00:16:27;98908.22;;;12.54;81.91
26719;BME280;14326;50.794;6.060;2023-03-18T00:18:56;98909.09;;;12.54;81.83
26719;BME280;14326;50.794;6.060;2023-03-18T00:21:24;98912.63;;;12.58;82.12
26719;BME280;14326;50.794;6.060;2023-03-18T00:23:51;98913.44;;;12.63;81.87
26719;BME280;14326;50.794;6.060;2023-03-18T00:26:22;98923.19;;;12.67;81.97
26719;BME280;14326;50.794;6.060;2023-03-18T00:28:49;98919.66;;;12.65;82.24
26719;BME280;14326;50.794;6.060;2023-03-18T00:31:16;98921.44;;;12.66;82.84
26719;BME280;14326;50.794;6.060;2023-03-18T00:33:43;98913.38;;;12.67;82.83
26719;BME280;14326;50.794;6.060;2023-03-18T00:36:11;98899.16;;;12.67;83.09
26719;BME280;14326;50.794;6.060;2023-03-18T00:38:43;98912.50;;;12.67;83.46
26719;BME280;14326;50.794;6.060;2023-03-18T00:41:40;98913.38;;;12.70;83.41
26719;BME280;14326;50.794;6.060;2023-03-18T00:44:26;98908.88;;;12.72;84.26
26719;BME280;14326;50.794;6.060;2023-03-18T00:46:54;98905.38;;;12.67;85.32
26719;BME280;14326;50.794;6.060;2023-03-18T00:49:21;98904.50;;;12.68;85.50
26719;BME280;14326;50.794;6.060;2023-03-18T00:51:48;98905.44;;;12.64;86.13
26719;BME280;14326;50.794;6.060;2023-03-18T00:54:16;98902.78;;;12.63;86.66
26719;BME280;14326;50.794;6.060;2023-03-18T00:56:46;98901.91;;;12.61;87.44
26719;BME280;14326;50.794;6.060;2023-03-18T01:02:37;98897.44;;;12.61;88.63
26719;BME280;14326;50.794;6.060;2023-03-18T01:05:33;98884.16;;;12.57;89.54
26719;BME280;14326;50.794;6.060;2023-03-18T01:08:13;98893.09;;;12.53;90.15
26719;BME280;14326;50.794;6.060;2023-03-18T01:10:40;98894.00;;;12.49;90.07
26719;BME280;14326;50.794;6.060;2023-03-18T01:13:08;98896.78;;;12.40;91.42
26719;BME280;14326;50.794;6.060;2023-03-18T01:15:34;98903.97;;;12.35;91.91
26719;BME280;14326;50.794;6.060;2023-03-18T01:20:54;98894.28;;;12.23;93.24
26719;BME280;14326;50.794;6.060;2023-03-18T01:23:21;98895.22;;;12.17;94.50
26719;BME280;14326;50.794;6.060;2023-03-18T01:26:12;98899.72;;;12.12;95.43
26719;BME280;14326;50.794;6.060;2023-03-18T01:29:03;98901.50;;;12.09;96.15
26719;BME280;14326;50.794;6.060;2023-03-18T01:31:32;98901.41;;;12.19;95.95
26719;BME280;14326;50.794;6.060;2023-03-18T01:34:00;98905.06;;;12.11;96.38
26719;BME280;14326;50.794;6.060;2023-03-18T01:36:27;98904.25;;;12.01;96.67
26719;BME280;14326;50.794;6.060;2023-03-18T01:39:13;98905.19;;;11.94;97.58
26719;BME280;14326;50.794;6.060;2023-03-18T01:41:49;98906.13;;;11.85;98.64
26719;BME280;14326;50.794;6.060;2023-03-18T01:44:19;98907.06;;;11.81;98.57
26719;BME280;14326;50.794;6.060;2023-03-18T01:46:47;98905.34;;;11.74;99.45
26719;BME280;14326;50.794;6.060;2023-03-18T01:49:18;98907.97;;;11.73;99.90
26719;BME280;14326;50.794;6.060;2023-03-18T01:51:56;98902.69;;;11.67;99.86
26719;BME280;14326;50.794;6.060;2023-03-18T01:54:45;98902.69;;;11.67;100.00
26719;BME280;14326;50.794;6.060;2023-03-18T01:57:17;98899.16;;;11.65;100.00
26719;BME280;14326;50.794;6.060;2023-03-18T02:00:10;98897.41;;;11.62;100.00
26719;BME280;14326;50.794;6.060;2023-03-18T02:02:48;98893.00;;;11.60;100.00
26719;BME280;14326;50.794;6.060;2023-03-18T02:05:43;98893.00;;;11.60;100.00
26719;BME280;14326;50.794;6.060;2023-03-18T02:08:27;98890.34;;;11.58;100.00
26719;BME280;14326;50.794;6.060;2023-03-18T02:10:56;98893.00;;;11.58;100.00
26719;BME280;14326;50.794;6.060;2023-03-18T02:13:23;98892.09;;;11.56;100.00
26719;BME280;14326;50.794;6.060;2023-03-18T02:19:04;98901.94;;;11.45;100.00
26719;BME280;14326;50.794;6.060;2023-03-18T02:21:57;98895.75;;;11.43;100.00
26719;BME280;14326;50.794;6.060;2023-03-18T02:24:54;98900.22;;;11.42;100.00
26719;BME280;14326;50.794;6.060;2023-03-18T02:27:33;98904.69;;;11.34;100.00
26719;BME280;14326;50.794;6.060;2023-03-18T02:30:05;98899.34;;;11.36;100.00
26719;BME280;14326;50.794;6.060;2023-03-18T02:32:33;98903.78;;;11.34;100.00
26719;BME280;14326;50.794;6.060;2023-03-18T02:35:05;98910.03;;;11.28;100.00
26719;BME280;14326;50.794;6.060;2023-03-18T02:37:32;98909.19;;;11.22;100.00
26719;BME280;14326;50.794;6.060;2023-03-18T02:40:11;98902.09;;;11.24;100.00
26719;BME280;14326;50.794;6.060;2023-03-18T02:42:40;98903.88;;;11.19;100.00
26719;BME280;14326;50.794;6.060;2023-03-18T02:45:32;98900.34;;;11.17;100.00
26719;BME280;14326;50.794;6.060;2023-03-18T02:48:07;98906.56;;;11.13;100.00
26719;BME280;14326;50.794;6.060;2023-03-18T02:50:36;98904.78;;;11.08;100.00
26719;BME280;14326;50.794;6.060;2023-03-18T02:53:04;98912.81;;;11.07;100.00
26719;BME280;14326;50.794;6.060;2023-03-18T02:55:56;98917.25;;;11.02;100.00
26719;BME280;14326;50.794;6.060;2023-03-18T02:58:31;98911.03;;;11.04;100.00
26719;BME280;14326;50.794;6.060;2023-03-18T03:00:58;98917.25;;;10.96;100.00
26719;BME280;14326;50.794;6.060;2023-03-18T03:03:25;98911.06;;;10.91;100.00
26719;BME280;14326;50.794;6.060;2023-03-18T03:05:53;98919.03;;;10.97;100.00
26719;BME280;14326;50.794;6.060;2023-03-18T03:08:21;98926.13;;;10.98;100.00
26719;BME280;14326;50.794;6.060;2023-03-18T03:10:48;98928.78;;;10.96;100.00
26719;BME280;14326;50.794;6.060;2023-03-18T03:13:15;98934.16;;;10.93;100.00
26719;BME280;14326;50.794;6.060;2023-03-18T03:15:43;98934.13;;;10.92;100.00
26719;BME280;14326;50.794;6.060;2023-03-18T03:18:11;98934.97;;;11.03;100.00
26719;BME280;14326;50.794;6.060;2023-03-18T03:20:38;98938.50;;;11.08;100.00
26719;BME280;14326;50.794;6.060;2023-03-18T03:23:07;98933.19;;;11.11;100.00
26719;BME280;14326;50.794;6.060;2023-03-18T03:25:34;98942.06;;;11.08;100.00
26719;BME280;14326;50.794;6.060;2023-03-18T03:28:01;98942.94;;;11.11;100.00
26719;BME280;14326;50.794;6.060;2023-03-18T03:30:28;98944.72;;;11.12;100.00
26719;BME280;14326;50.794;6.060;2023-03-18T03:32:57;98959.78;;;11.16;100.00
26719;BME280;14326;50.794;6.060;2023-03-18T03:35:25;98952.66;;;11.19;100.00
26719;BME280;14326;50.794;6.060;2023-03-18T03:37:52;98960.66;;;11.22;100.00
26719;BME280;14326;50.794;6.060;2023-03-18T03:40:19;98968.63;;;11.22;100.00
26719;BME280;14326;50.794;6.060;2023-03-18T03:42:47;98968.59;;;11.30;100.00
26719;BME280;14326;50.794;6.060;2023-03-18T03:45:15;98961.44;;;11.38;100.00
26719;BME280;14326;50.794;6.060;2023-03-18T03:47:43;98963.22;;;11.37;100.00
26719;BME280;14326;50.794;6.060;2023-03-18T03:50:13;98963.22;;;11.40;100.00
26719;BME280;14326;50.794;6.060;2023-03-18T03:52:40;98964.06;;;11.50;100.00
26719;BME280;14326;50.794;6.060;2023-03-18T03:55:10;98959.63;;;11.54;100.00
26719;BME280;14326;50.794;6.060;2023-03-18T03:57:51;98968.47;;;11.56;100.00
26719;BME280;14326;50.794;6.060;2023-03-18T04:00:19;98968.50;;;11.53;100.00
26719;BME280;14326;50.794;6.060;2023-03-18T04:02:49;98973.81;;;11.53;100.00
26719;BME280;14326;50.794;6.060;2023-03-18T04:05:19;98976.47;;;11.51;100.00
26719;BME280;14326;50.794;6.060;2023-03-18T04:07:47;98979.16;;;11.51;100.00
26719;BME280;14326;50.794;6.060;2023-03-18T04:10:17;98981.84;;;11.46;100.00
26719;BME280;14326;50.794;6.060;2023-03-18T04:12:45;98979.16;;;11.43;100.00
26719;BME280;14326;50.794;6.060;2023-03-18T04:15:26;98978.28;;;11.43;100.00
26719;BME280;14326;50.794;6.060;2023-03-18T04:17:56;98991.59;;;11.44;100.00
26719;BME280;14326;50.794;6.060;2023-03-18T04:20:27;98991.63;;;11.38;100.00
26719;BME280;14326;50.794;6.060;2023-03-18T04:22:54;98990.78;;;11.36;100.00
26719;BME280;14326;50.794;6.060;2023-03-18T04:25:21;98997.84;;;11.37;100.00
26719;BME280;14326;50.794;6.060;2023-03-18T04:27:47;98997.00;;;11.29;100.00
26719;BME280;14326;50.794;6.060;2023-03-18T04:30:22;98995.25;;;11.24;100.00
26719;BME280;14326;50.794;6.060;2023-03-18T04:32:51;99002.34;;;11.23;100.00
26719;BME280;14326;50.794;6.060;2023-03-18T04:35:18;99004.13;;;11.21;100.00
26719;BME280;14326;50.794;6.060;2023-03-18T04:37:46;99006.81;;;11.17;100.00
26719;BME280;14326;50.794;6.060;2023-03-18T04:40:14;99004.13;;;11.15;100.00
26719;BME280;14326;50.794;6.060;2023-03-18T04:42:41;99020.09;;;11.15;100.00
26719;BME280;14326;50.794;6.060;2023-03-18T04:51:21;99022.81;;;11.06;100.00
26719;BME280;14326;50.794;6.060;2023-03-18T04:53:52;99022.81;;;11.06;100.00
26719;BME280;14326;50.794;6.060;2023-03-18T04:56:19;99022.81;;;11.03;100.00
26719;BME280;14326;50.794;6.060;2023-03-18T04:58:46;99018.38;;;11.02;100.00
26719;BME280;14326;50.794;6.060;2023-03-18T05:01:13;99014.84;;;10.98;100.00
26719;BME280;14326;50.794;6.060;2023-03-18T05:04:05;99016.63;;;10.95;100.00
26719;BME280;14326;50.794;6.060;2023-03-18T05:06:44;99025.47;;;10.91;100.00
26719;BME280;14326;50.794;6.060;2023-03-18T05:09:12;99028.16;;;10.89;100.00
26719;BME280;14326;50.794;6.060;2023-03-18T05:11:39;99035.25;;;10.87;100.00
26719;BME280;14326;50.794;6.060;2023-03-18T05:14:06;99028.16;;;10.86;100.00
26719;BME280;14326;50.794;6.060;2023-03-18T05:16:33;99024.63;;;10.87;100.00
26719;BME280;14326;50.794;6.060;2023-03-18T05:18:59;99025.50;;;10.89;100.00
26719;BME280;14326;50.794;6.060;2023-03-18T05:21:26;99027.28;;;10.89;100.00
26719;BME280;14326;50.794;6.060;2023-03-18T05:23:53;99025.50;;;10.92;100.00
26719;BME280;14326;50.794;6.060;2023-03-18T05:26:21;99020.16;;;10.94;100.00
26719;BME280;14326;50.794;6.060;2023-03-18T05:28:49;99017.53;;;10.95;100.00
26719;BME280;14326;50.794;6.060;2023-03-18T05:31:15;99017.50;;;10.94;100.00
26719;BME280;14326;50.794;6.060;2023-03-18T05:33:42;99016.63;;;10.90;100.00
26719;BME280;14326;50.794;6.060;2023-03-18T05:36:09;99019.28;;;10.99;100.00
26719;BME280;14326;50.794;6.060;2023-03-18T05:38:36;99024.59;;;10.98;100.00
26719;BME280;14326;50.794;6.060;2023-03-18T05:41:03;99022.81;;;10.97;100.00
26719;BME280;14326;50.794;6.060;2023-03-18T05:43:31;99021.94;;;10.92;100.00
26719;BME280;14326;50.794;6.060;2023-03-18T05:45:57;99027.25;;;10.92;100.00
26719;BME280;14326;50.794;6.060;2023-03-18T05:48:24;99019.28;;;10.93;100.00
26719;BME280;14326;50.794;6.060;2023-03-18T05:50:51;99023.72;;;10.91;100.00
26719;BME280;14326;50.794;6.060;2023-03-18T05:53:18;99024.59;;;10.90;100.00
26719;BME280;14326;50.794;6.060;2023-03-18T05:55:45;99027.28;;;10.89;100.00
26719;BME280;14326;50.794;6.060;2023-03-18T05:58:11;99021.09;;;10.84;100.00
26719;BME280;14326;50.794;6.060;2023-03-18T06:00:39;99032.59;;;10.80;100.00
26719;BME280;14326;50.794;6.060;2023-03-18T06:03:06;99026.38;;;10.79;100.00
26719;BME280;14326;50.794;6.060;2023-03-18T06:05:33;99025.53;;;10.77;100.00
26719;BME280;14326;50.794;6.060;2023-03-18T06:08:00;99035.25;;;10.78;100.00
26719;BME280;14326;50.794;6.060;2023-03-18T06:10:26;99031.72;;;10.76;100.00
26719;BME280;14326;50.794;6.060;2023-03-18T06:12:54;99033.50;;;10.74;100.00
26719;BME280;14326;50.794;6.060;2023-03-18T06:15:21;99033.50;;;10.74;100.00
26719;BME280;14326;50.794;6.060;2023-03-18T06:17:50;99034.38;;;10.73;100.00
26719;BME280;14326;50.794;6.060;2023-03-18T06:20:17;99037.94;;;10.77;100.00
26719;BME280;14326;50.794;6.060;2023-03-18T06:22:44;99040.59;;;10.80;100.00
26719;BME280;14326;50.794;6.060;2023-03-18T06:25:15;99040.59;;;10.81;100.00
26719;BME280;14326;50.794;6.060;2023-03-18T06:27:43;99042.31;;;10.96;100.00
26719;BME280;14326;50.794;6.060;2023-03-18T06:30:11;99048.44;;;11.37;100.00
26719;BME280;14326;50.794;6.060;2023-03-18T06:32:38;99049.81;;;12.25;99.43
26719;BME280;14326;50.794;6.060;2023-03-18T06:35:08;99047.00;;;13.42;91.34
26719;BME280;14326;50.794;6.060;2023-03-18T06:37:36;99033.88;;;14.53;84.03
26719;BME280;14326;50.794;6.060;2023-03-18T06:40:04;99053.06;;;15.28;79.43
26719;BME280;14326;50.794;6.060;2023-03-18T06:42:31;99055.06;;;15.65;75.76
26719;BME280;14326;50.794;6.060;2023-03-18T06:44:58;99055.44;;;16.29;73.67
26719;BME280;14326;50.794;6.060;2023-03-18T06:47:26;99045.22;;;17.17;67.56
26719;BME280;14326;50.794;6.060;2023-03-18T06:49:53;99042.34;;;17.56;65.20
26719;BME280;14326;50.794;6.060;2023-03-18T06:52:22;99050.66;;;18.10;62.26
26719;BME280;14326;50.794;6.060;2023-03-18T06:54:49;99039.91;;;18.38;60.53
26719;BME280;14326;50.794;6.060;2023-03-18T06:57:16;99039.91;;;18.38;60.53
26719;BME280;14326;50.794;6.060;2023-03-18T06:59:44;99039.06;;;18.92;58.81
26719;BME280;14326;50.794;6.060;2023-03-18T07:02:13;77070.78;;;19.23;100.00
26719;BME280;14326;50.794;6.060;2023-03-18T07:04:39;57030.06;;;-142.25;100.00
26719;BME280;14326;50.794;6.060;2023-03-18T07:07:07;57030.06;;;-142.25;100.00
26719;BME280;14326;50.794;6.060;2023-03-18T07:09:35;57030.06;;;-142.25;100.00
26719;BME280;14326;50.794;6.060;2023-03-18T07:12:02;57030.06;;;-142.25;100.00
26719;BME280;14326;50.794;6.060;2023-03-18T07:14:30;57030.06;;;-142.25;100.00
26719;BME280;14326;50.794;6.060;2023-03-18T07:16:57;57030.06;;;-142.25;100.00
26719;BME280;14326;50.794;6.060;2023-03-18T07:19:29;57030.06;;;-142.25;100.00
26719;BME280;14326;50.794;6.060;2023-03-18T07:22:37;57030.06;;;-142.25;100.00
26719;BME280;14326;50.794;6.060;2023-03-18T07:25:17;57030.06;;;-142.25;100.00
26719;BME280;14326;50.794;6.060;2023-03-18T07:27:43;57030.06;;;-142.25;100.00
26719;BME280;14326;50.794;6.060;2023-03-18T07:30:11;57030.06;;;-142.25;100.00
26719;BME280;14326;50.794;6.060;2023-03-18T07:32:38;57030.06;;;-142.25;100.00
26719;BME280;14326;50.794;6.060;2023-03-18T07:35:08;57030.06;;;-142.25;100.00
26719;BME280;14326;50.794;6.060;2023-03-18T07:37:38;57030.06;;;-142.25;100.00
26719;BME280;14326;50.794;6.060;2023-03-18T07:40:05;57030.06;;;-142.25;100.00
26719;BME280;14326;50.794;6.060;2023-03-18T07:42:33;57030.06;;;-142.25;100.00
26719;BME280;14326;50.794;6.060;2023-03-18T07:45:06;57030.06;;;-142.25;100.00
26719;BME280;14326;50.794;6.060;2023-03-18T07:47:33;57030.06;;;-142.25;100.00
26719;BME280;14326;50.794;6.060;2023-03-18T07:50:07;57030.06;;;-142.25;100.00
26719;BME280;14326;50.794;6.060;2023-03-18T07:52:35;57030.06;;;-142.25;100.00
26719;BME280;14326;50.794;6.060;2023-03-18T07:55:03;57030.06;;;-142.25;100.00
26719;BME280;14326;50.794;6.060;2023-03-18T07:57:30;57030.06;;;-142.25;100.00
26719;BME280;14326;50.794;6.060;2023-03-18T07:59:58;57030.06;;;-142.25;100.00
26719;BME280;14326;50.794;6.060;2023-03-18T08:02:25;57030.06;;;-142.25;100.00
26719;BME280;14326;50.794;6.060;2023-03-18T08:04:52;57030.06;;;-142.25;100.00
26719;BME280;14326;50.794;6.060;2023-03-18T08:07:19;57030.06;;;-142.25;100.00
26719;BME280;14326;50.794;6.060;2023-03-18T08:09:47;57030.06;;;-142.25;100.00
26719;BME280;14326;50.794;6.060;2023-03-18T08:12:15;57030.06;;;-142.25;100.00
26719;BME280;14326;50.794;6.060;2023-03-18T08:14:41;57030.06;;;-142.25;100.00
26719;BME280;14326;50.794;6.060;2023-03-18T08:17:09;57030.06;;;-142.25;100.00
26719;BME280;14326;50.794;6.060;2023-03-18T08:19:36;57030.06;;;-142.25;100.00
26719;BME280;14326;50.794;6.060;2023-03-18T08:22:03;57030.06;;;-142.25;100.00
26719;BME280;14326;50.794;6.060;2023-03-18T08:24:30;57030.06;;;-142.25;100.00
26719;BME280;14326;50.794;6.060;2023-03-18T08:26:57;57030.06;;;-142.25;100.00
26719;BME280;14326;50.794;6.060;2023-03-18T08:29:23;57030.06;;;-142.25;100.00
26719;BME280;14326;50.794;6.060;2023-03-18T08:31:50;57030.06;;;-142.25;100.00
26719;BME280;14326;50.794;6.060;2023-03-18T08:34:18;57030.06;;;-142.25;100.00
26719;BME280;14326;50.794;6.060;2023-03-18T08:36:45;57030.06;;;-142.25;100.00
26719;BME280;14326;50.794;6.060;2023-03-18T08:39:11;57030.06;;;-142.25;100.00
26719;BME280;14326;50.794;6.060;2023-03-18T08:41:38;57030.06;;;-142.25;100.00
26719;BME280;14326;50.794;6.060;2023-03-18T08:44:06;57030.06;;;-142.25;100.00
26719;BME280;14326;50.794;6.060;2023-03-18T08:46:35;57030.06;;;-142.25;100.00
26719;BME280;14326;50.794;6.060;2023-03-18T08:49:02;57030.06;;;-142.25;100.00
26719;BME280;14326;50.794;6.060;2023-03-18T08:51:30;57030.06;;;-142.25;100.00
26719;BME280;14326;50.794;6.060;2023-03-18T08:53:56;57030.06;;;-142.25;100.00
26719;BME280;14326;50.794;6.060;2023-03-18T08:56:23;57030.06;;;-142.25;100.00
26719;BME280;14326;50.794;6.060;2023-03-18T08:58:50;57030.06;;;-142.25;100.00
26719;BME280;14326;50.794;6.060;2023-03-18T09:01:18;57030.06;;;-142.25;100.00
26719;BME280;14326;50.794;6.060;2023-03-18T09:03:46;57030.06;;;-142.25;100.00
26719;BME280;14326;50.794;6.060;2023-03-18T09:06:13;57030.06;;;-142.25;100.00
26719;BME280;14326;50.794;6.060;2023-03-18T09:08:42;57030.06;;;-142.25;100.00
26719;BME280;14326;50.794;6.060;2023-03-18T09:11:09;57030.06;;;-142.25;100.00
26719;BME280;14326;50.794;6.060;2023-03-18T09:13:37;57030.06;;;-142.25;100.00
26719;BME280;14326;50.794;6.060;2023-03-18T09:16:05;57030.06;;;-142.25;100.00
26719;BME280;14326;50.794;6.060;2023-03-18T09:18:32;57030.06;;;-142.25;100.00
26719;BME280;14326;50.794;6.060;2023-03-18T09:20:59;57030.06;;;-142.25;100.00
26719;BME280;14326;50.794;6.060;2023-03-18T09:23:27;57030.06;;;-142.25;100.00
26719;BME280;14326;50.794;6.060;2023-03-18T09:25:55;57030.06;;;-142.25;100.00
26719;BME280;14326;50.794;6.060;2023-03-18T09:28:22;57030.06;;;-142.25;100.00
26719;BME280;14326;50.794;6.060;2023-03-18T09:30:50;57030.06;;;-142.25;100.00
26719;BME280;14326;50.794;6.060;2023-03-18T09:33:17;57030.06;;;-142.25;100.00
26719;BME280;14326;50.794;6.060;2023-03-18T09:35:45;57030.06;;;-142.25;100.00
26719;BME280;14326;50.794;6.060;2023-03-18T09:38:15;57030.06;;;-142.25;100.00
26719;BME280;14326;50.794;6.060;2023-03-18T09:40:51;57030.06;;;-142.25;100.00
26719;BME280;14326;50.794;6.060;2023-03-18T09:46:19;57030.06;;;-142.25;100.00
26719;BME280;14326;50.794;6.060;2023-03-18T09:49:12;57030.06;;;-142.25;100.00
26719;BME280;14326;50.794;6.060;2023-03-18T09:52:00;57030.06;;;-142.25;100.00
26719;BME280;14326;50.794;6.060;2023-03-18T09:54:33;57030.06;;;-142.25;100.00
26719;BME280;14326;50.794;6.060;2023-03-18T09:57:05;57030.06;;;-142.25;100.00
26719;BME280;14326;50.794;6.060;2023-03-18T09:59:40;57030.06;;;-142.25;100.00
26719;BME280;14326;50.794;6.060;2023-03-18T10:02:20;57030.06;;;-142.25;100.00
26719;BME280;14326;50.794;6.060;2023-03-18T10:05:00;57030.06;;;-142.25;100.00
26719;BME280;14326;50.794;6.060;2023-03-18T10:07:42;57030.06;;;-142.25;100.00
26719;BME280;14326;50.794;6.060;2023-03-18T10:10:39;57030.06;;;-142.25;100.00
26719;BME280;14326;50.794;6.060;2023-03-18T10:13:12;57030.06;;;-142.25;100.00
26719;BME280;14326;50.794;6.060;2023-03-18T10:15:45;57030.06;;;-142.25;100.00
26719;BME280;14326;50.794;6.060;2023-03-18T10:18:31;57030.06;;;-142.25;100.00
26719;BME280;14326;50.794;6.060;2023-03-18T10:21:17;57030.06;;;-142.25;100.00
26719;BME280;14326;50.794;6.060;2023-03-18T10:23:54;57030.06;;;-142.25;100.00
26719;BME280;14326;50.794;6.060;2023-03-18T10:26:29;57030.06;;;-142.25;100.00
26719;BME280;14326;50.794;6.060;2023-03-18T10:29:24;57030.06;;;-142.25;100.00
26719;BME280;14326;50.794;6.060;2023-03-18T10:32:04;57030.06;;;-142.25;100.00
26719;BME280;14326;50.794;6.060;2023-03-18T10:34:39;57030.06;;;-142.25;100.00
26719;BME280;14326;50.794;6.060;2023-03-18T10:37:15;57030.06;;;-142.25;100.00
26719;BME280;14326;50.794;6.060;2023-03-18T10:40:11;57030.06;;;-142.25;100.00
26719;BME280;14326;50.794;6.060;2023-03-18T10:42:46;57030.06;;;-142.25;100.00
26719;BME280;14326;50.794;6.060;2023-03-18T10:45:20;57030.06;;;-142.25;100.00
26719;BME280;14326;50.794;6.060;2023-03-18T10:47:55;57030.06;;;-142.25;100.00
26719;BME280;14326;50.794;6.060;2023-03-18T10:50:30;57030.06;;;-142.25;100.00
26719;BME280;14326;50.794;6.060;2023-03-18T10:53:01;57030.06;;;-142.25;100.00
26719;BME280;14326;50.794;6.060;2023-03-18T10:55:33;57030.06;;;-142.25;100.00
26719;BME280;14326;50.794;6.060;2023-03-18T10:58:09;57030.06;;;-142.25;100.00
26719;BME280;14326;50.794;6.060;2023-03-18T11:00:40;57030.06;;;-142.25;100.00
26719;BME280;14326;50.794;6.060;2023-03-18T11:03:19;57030.06;;;-142.25;100.00
26719;BME280;14326;50.794;6.060;2023-03-18T11:05:46;57030.06;;;-142.25;100.00
26719;BME280;14326;50.794;6.060;2023-03-18T11:08:30;57030.06;;;-142.25;100.00
26719;BME280;14326;50.794;6.060;2023-03-18T11:11:01;57030.06;;;-142.25;100.00
26719;BME280;14326;50.794;6.060;2023-03-18T11:13:45;57030.06;;;-142.25;100.00
26719;BME280;14326;50.794;6.060;2023-03-18T11:16:20;57030.06;;;-142.25;100.00
26719;BME280;14326;50.794;6.060;2023-03-18T11:18:57;57030.06;;;-142.25;100.00
26719;BME280;14326;50.794;6.060;2023-03-18T11:21:26;57030.06;;;-142.25;100.00
26719;BME280;14326;50.794;6.060;2023-03-18T11:23:58;57030.06;;;-142.25;100.00
26719;BME280;14326;50.794;6.060;2023-03-18T11:26:47;57030.06;;;-142.25;100.00
26719;BME280;14326;50.794;6.060;2023-03-18T11:29:17;57030.06;;;-142.25;100.00
26719;BME280;14326;50.794;6.060;2023-03-18T11:31:52;57030.06;;;-142.25;100.00
26719;BME280;14326;50.794;6.060;2023-03-18T11:34:27;57030.06;;;-142.25;100.00
26719;BME280;14326;50.794;6.060;2023-03-18T11:36:56;57030.06;;;-142.25;100.00
26719;BME280;14326;50.794;6.060;2023-03-18T11:39:30;57030.06;;;-142.25;100.00
26719;BME280;14326;50.794;6.060;2023-03-18T11:41:58;57030.06;;;-142.25;100.00
26719;BME280;14326;50.794;6.060;2023-03-18T11:44:29;57030.06;;;-142.25;100.00
26719;BME280;14326;50.794;6.060;2023-03-18T11:47:05;57030.06;;;-142.25;100.00
26719;BME280;14326;50.794;6.060;2023-03-18T11:49:37;57030.06;;;-142.25;100.00
26719;BME280;14326;50.794;6.060;2023-03-18T11:52:30;57030.06;;;-142.25;100.00
26719;BME280;14326;50.794;6.060;2023-03-18T11:55:26;57030.06;;;-142.25;100.00
26719;BME280;14326;50.794;6.060;2023-03-18T12:01:04;57030.06;;;-142.25;100.00
26719;BME280;14326;50.794;6.060;2023-03-18T12:03:47;57030.06;;;-142.25;100.00
26719;BME280;14326;50.794;6.060;2023-03-18T12:06:22;57030.06;;;-142.25;100.00
26719;BME280;14326;50.794;6.060;2023-03-18T12:08:56;57030.06;;;-142.25;100.00
26719;BME280;14326;50.794;6.060;2023-03-18T12:11:34;57030.06;;;-142.25;100.00
26719;BME280;14326;50.794;6.060;2023-03-18T12:14:24;57030.06;;;-142.25;100.00
26719;BME280;14326;50.794;6.060;2023-03-18T12:17:01;57030.06;;;-142.25;100.00
26719;BME280;14326;50.794;6.060;2023-03-18T12:22:50;57030.06;;;-142.25;100.00
26719;BME280;14326;50.794;6.060;2023-03-18T12:25:34;57030.06;;;-142.25;100.00
26719;BME280;14326;50.794;6.060;2023-03-18T12:28:11;57030.06;;;-142.25;100.00
26719;BME280;14326;50.794;6.060;2023-03-18T12:30:47;57030.06;;;-142.25;100.00
26719;BME280;14326;50.794;6.060;2023-03-18T12:33:27;57030.06;;;-142.25;100.00
26719;BME280;14326;50.794;6.060;2023-03-18T12:36:05;57030.06;;;-142.25;100.00
26719;BME280;14326;50.794;6.060;2023-03-18T12:38:55;57030.06;;;-142.25;100.00
26719;BME280;14326;50.794;6.060;2023-03-18T12:41:31;57030.06;;;-142.25;100.00
26719;BME280;14326;50.794;6.060;2023-03-18T12:44:10;57030.06;;;-142.25;100.00
26719;BME280;14326;50.794;6.060;2023-03-18T12:46:44;57030.06;;;-142.25;100.00
26719;BME280;14326;50.794;6.060;2023-03-18T12:49:16;57030.06;;;-142.25;100.00
26719;BME280;14326;50.794;6.060;2023-03-18T12:51:49;57030.06;;;-142.25;100.00
26719;BME280;14326;50.794;6.060;2023-03-18T12:54:23;57030.06;;;-142.25;100.00
26719;BME280;14326;50.794;6.060;2023-03-18T12:56:57;57030.06;;;-142.25;100.00
26719;BME280;14326;50.794;6.060;2023-03-18T12:59:37;57030.06;;;-142.25;100.00
26719;BME280;14326;50.794;6.060;2023-03-18T13:02:38;57030.06;;;-142.25;100.00
26719;BME280;14326;50.794;6.060;2023-03-18T13:05:18;57030.06;;;-142.25;100.00
26719;BME280;14326;50.794;6.060;2023-03-18T13:07:48;57030.06;;;-142.25;100.00
26719;BME280;14326;50.794;6.060;2023-03-18T13:10:21;57030.06;;;-142.25;100.00
26719;BME280;14326;50.794;6.060;2023-03-18T13:13:05;57030.06;;;-142.25;100.00
26719;BME280;14326;50.794;6.060;2023-03-18T13:15:46;57030.06;;;-142.25;100.00
26719;BME280;14326;50.794;6.060;2023-03-18T13:18:18;57030.06;;;-142.25;100.00
26719;BME280;14326;50.794;6.060;2023-03-18T13:20:46;57030.06;;;-142.25;100.00
26719;BME280;14326;50.794;6.060;2023-03-18T13:23:28;57030.06;;;-142.25;100.00
26719;BME280;14326;50.794;6.060;2023-03-18T13:26:09;57030.06;;;-142.25;100.00
26719;BME280;14326;50.794;6.060;2023-03-18T13:29:01;57030.06;;;-142.25;100.00
26719;BME280;14326;50.794;6.060;2023-03-18T13:31:38;57030.06;;;-142.25;100.00
26719;BME280;14326;50.794;6.060;2023-03-18T13:37:43;57030.06;;;-142.25;100.00